sensor_id;sensor_type;location;lat;lon;timestamp;P1;durP1;ratioP1;P2;durP2;ratioP2
23732;SDS011;12047;53.450;-2.286;2023-05-24T00:02:42;15.38;;;4.50;;
23732;SDS011;12047;53.450;-2.286;2023-05-24T00:07:43;15.52;;;4.60;;
23732;SDS011;12047;53.450;-2.286;2023-05-24T00:12:43;16.27;;;4.25;;
23732;SDS011;12047;53.450;-2.286;2023-05-24T00:17:44;16.98;;;4.53;;
23732;SDS011;12047;53.450;-2.286;2023-05-24T00:22:45;20.02;;;4.68;;
23732;SDS011;12047;53.450;-2.286;2023-05-24T00:27:46;15.65;;;4.40;;
23732;SDS011;12047;53.450;-2.286;2023-05-24T00:32:46;13.15;;;4.40;;
23732;SDS011;12047;53.450;-2.286;2023-05-24T00:37:47;20.43;;;5.13;;
23732;SDS011;12047;53.450;-2.286;2023-05-24T00:42:47;16.25;;;5.05;;
23732;SDS011;12047;53.450;-2.286;2023-05-24T00:47:48;21.65;;;4.15;;
23732;SDS011;12047;53.450;-2.286;2023-05-24T00:52:49;15.77;;;4.82;;
23732;SDS011;12047;53.450;-2.286;2023-05-24T00:57:50;22.30;;;5.28;;
23732;SDS011;12047;53.450;-2.286;2023-05-24T01:02:52;17.05;;;4.30;;
23732;SDS011;12047;53.450;-2.286;2023-05-24T01:18:47;21.00;;;5.70;;
23732;SDS011;12047;53.450;-2.286;2023-05-24T01:24:09;20.90;;;5.13;;
23732;SDS011;12047;53.450;-2.286;2023-05-24T01:29:23;24.25;;;5.07;;
23732;SDS011;12047;53.450;-2.286;2023-05-24T01:34:25;20.00;;;5.38;;
23732;SDS011;12047;53.450;-2.286;2023-05-24T01:39:26;15.50;;;4.13;;
23732;SDS011;12047;53.450;-2.286;2023-05-24T01:44:53;19.88;;;5.32;;
23732;SDS011;12047;53.450;-2.286;2023-05-24T01:49:58;18.23;;;4.97;;
23732;SDS011;12047;53.450;-2.286;2023-05-24T01:55:11;18.52;;;4.97;;
23732;SDS011;12047;53.450;-2.286;2023-05-24T02:00:15;17.55;;;4.93;;
23732;SDS011;12047;53.450;-2.286;2023-05-24T02:05:17;22.13;;;5.78;;
23732;SDS011;12047;53.450;-2.286;2023-05-24T02:10:17;16.90;;;4.10;;
23732;SDS011;12047;53.450;-2.286;2023-05-24T02:15:18;23.63;;;4.60;;
23732;SDS011;12047;53.450;-2.286;2023-05-24T02:20:19;15.90;;;4.18;;
23732;SDS011;12047;53.450;-2.286;2023-05-24T02:25:21;13.90;;;3.83;;
23732;SDS011;12047;53.450;-2.286;2023-05-24T02:30:21;15.90;;;4.50;;
23732;SDS011;12047;53.450;-2.286;2023-05-24T02:35:22;17.83;;;4.57;;
23732;SDS011;12047;53.450;-2.286;2023-05-24T02:40:23;18.50;;;5.28;;
23732;SDS011;12047;53.450;-2.286;2023-05-24T02:45:23;14.82;;;4.53;;
23732;SDS011;12047;53.450;-2.286;2023-05-24T02:50:23;18.10;;;5.07;;
23732;SDS011;12047;53.450;-2.286;2023-05-24T02:55:24;19.10;;;4.22;;
23732;SDS011;12047;53.450;-2.286;2023-05-24T03:00:25;17.15;;;4.57;;
23732;SDS011;12047;53.450;-2.286;2023-05-24T03:05:26;18.70;;;4.78;;
23732;SDS011;12047;53.450;-2.286;2023-05-24T03:10:26;15.35;;;4.90;;
23732;SDS011;12047;53.450;-2.286;2023-05-24T03:15:27;18.00;;;4.53;;
23732;SDS011;12047;53.450;-2.286;2023-05-24T03:20:27;13.20;;;4.72;;
23732;SDS011;12047;53.450;-2.286;2023-05-24T03:25:28;17.10;;;4.68;;
23732;SDS011;12047;53.450;-2.286;2023-05-24T03:30:28;20.00;;;4.50;;
23732;SDS011;12047;53.450;-2.286;2023-05-24T03:35:29;16.23;;;4.50;;
23732;SDS011;12047;53.450;-2.286;2023-05-24T03:40:29;14.57;;;4.78;;
23732;SDS011;12047;53.450;-2.286;2023-05-24T03:45:32;14.98;;;4.57;;
23732;SDS011;12047;53.450;-2.286;2023-05-24T03:50:32;10.80;;;3.83;;
23732;SDS011;12047;53.450;-2.286;2023-05-24T03:55:33;17.17;;;4.65;;
23732;SDS011;12047;53.450;-2.286;2023-05-24T04:00:33;15.32;;;4.13;;
23732;SDS011;12047;53.450;-2.286;2023-05-24T04:05:34;16.67;;;5.07;;
23732;SDS011;12047;53.450;-2.286;2023-05-24T04:10:34;14.60;;;4.97;;
23732;SDS011;12047;53.450;-2.286;2023-05-24T04:15:35;15.10;;;4.57;;
23732;SDS011;12047;53.450;-2.286;2023-05-24T04:20:36;19.58;;;4.90;;
23732;SDS011;12047;53.450;-2.286;2023-05-24T04:25:37;17.73;;;5.07;;
23732;SDS011;12047;53.450;-2.286;2023-05-24T04:30:38;16.40;;;5.07;;
23732;SDS011;12047;53.450;-2.286;2023-05-24T04:35:38;18.58;;;5.30;;
23732;SDS011;12047;53.450;-2.286;2023-05-24T04:40:39;15.80;;;4.68;;
23732;SDS011;12047;53.450;-2.286;2023-05-24T04:45:40;14.75;;;4.63;;
23732;SDS011;12047;53.450;-2.286;2023-05-24T04:50:40;15.98;;;4.93;;
23732;SDS011;12047;53.450;-2.286;2023-05-24T04:55:41;12.73;;;4.65;;
23732;SDS011;12047;53.450;-2.286;2023-05-24T05:00:42;14.15;;;4.45;;
23732;SDS011;12047;53.450;-2.286;2023-05-24T05:05:42;11.63;;;4.38;;
23732;SDS011;12047;53.450;-2.286;2023-05-24T05:10:44;12.27;;;4.75;;
23732;SDS011;12047;53.450;-2.286;2023-05-24T05:15:45;14.30;;;4.78;;
23732;SDS011;12047;53.450;-2.286;2023-05-24T05:20:45;18.65;;;4.65;;
23732;SDS011;12047;53.450;-2.286;2023-05-24T05:25:46;14.95;;;4.68;;
23732;SDS011;12047;53.450;-2.286;2023-05-24T05:30:46;17.55;;;5.05;;
23732;SDS011;12047;53.450;-2.286;2023-05-24T05:35:47;19.50;;;5.80;;
23732;SDS011;12047;53.450;-2.286;2023-05-24T05:40:47;14.25;;;5.22;;
23732;SDS011;12047;53.450;-2.286;2023-05-24T05:45:48;17.13;;;5.93;;
23732;SDS011;12047;53.450;-2.286;2023-05-24T05:50:50;17.65;;;5.50;;
23732;SDS011;12047;53.450;-2.286;2023-05-24T05:55:50;18.77;;;5.10;;
23732;SDS011;12047;53.450;-2.286;2023-05-24T06:00:51;12.93;;;4.93;;
23732;SDS011;12047;53.450;-2.286;2023-05-24T06:05:51;17.55;;;6.20;;
23732;SDS011;12047;53.450;-2.286;2023-05-24T06:10:52;18.02;;;5.40;;
23732;SDS011;12047;53.450;-2.286;2023-05-24T06:15:52;17.60;;;5.97;;
23732;SDS011;12047;53.450;-2.286;2023-05-24T06:20:53;18.98;;;5.82;;
23732;SDS011;12047;53.450;-2.286;2023-05-24T06:25:54;12.77;;;4.82;;
23732;SDS011;12047;53.450;-2.286;2023-05-24T06:30:55;16.83;;;5.82;;
23732;SDS011;12047;53.450;-2.286;2023-05-24T06:35:55;22.40;;;5.60;;
23732;SDS011;12047;53.450;-2.286;2023-05-24T06:40:55;18.33;;;5.88;;
23732;SDS011;12047;53.450;-2.286;2023-05-24T06:45:56;18.53;;;5.33;;
23732;SDS011;12047;53.450;-2.286;2023-05-24T06:50:57;17.23;;;5.80;;
23732;SDS011;12047;53.450;-2.286;2023-05-24T06:55:57;12.00;;;5.15;;
23732;SDS011;12047;53.450;-2.286;2023-05-24T07:00:57;23.77;;;4.95;;
23732;SDS011;12047;53.450;-2.286;2023-05-24T07:05:58;17.25;;;4.75;;
23732;SDS011;12047;53.450;-2.286;2023-05-24T07:10:58;17.90;;;5.35;;
23732;SDS011;12047;53.450;-2.286;2023-05-24T07:15:59;19.88;;;5.22;;
23732;SDS011;12047;53.450;-2.286;2023-05-24T07:21:00;17.48;;;5.10;;
23732;SDS011;12047;53.450;-2.286;2023-05-24T07:26:00;15.98;;;5.47;;
23732;SDS011;12047;53.450;-2.286;2023-05-24T07:31:01;18.65;;;5.80;;
23732;SDS011;12047;53.450;-2.286;2023-05-24T07:36:05;16.77;;;5.68;;
23732;SDS011;12047;53.450;-2.286;2023-05-24T07:41:06;18.25;;;5.00;;
23732;SDS011;12047;53.450;-2.286;2023-05-24T07:46:06;16.02;;;4.80;;
23732;SDS011;12047;53.450;-2.286;2023-05-24T07:51:07;17.80;;;5.35;;
23732;SDS011;12047;53.450;-2.286;2023-05-24T07:56:08;14.35;;;5.28;;
23732;SDS011;12047;53.450;-2.286;2023-05-24T08:01:08;17.80;;;5.13;;
23732;SDS011;12047;53.450;-2.286;2023-05-24T08:06:10;14.40;;;4.75;;
23732;SDS011;12047;53.450;-2.286;2023-05-24T08:11:11;18.60;;;5.35;;
23732;SDS011;12047;53.450;-2.286;2023-05-24T08:16:11;16.83;;;4.85;;
23732;SDS011;12047;53.450;-2.286;2023-05-24T08:21:12;18.98;;;4.72;;
23732;SDS011;12047;53.450;-2.286;2023-05-24T08:26:12;16.73;;;5.75;;
23732;SDS011;12047;53.450;-2.286;2023-05-24T08:31:13;15.63;;;5.07;;
23732;SDS011;12047;53.450;-2.286;2023-05-24T08:36:13;14.52;;;4.68;;
23732;SDS011;12047;53.450;-2.286;2023-05-24T08:41:14;18.02;;;5.72;;
23732;SDS011;12047;53.450;-2.286;2023-05-24T08:46:15;13.95;;;5.07;;
23732;SDS011;12047;53.450;-2.286;2023-05-24T08:51:17;18.48;;;5.50;;
23732;SDS011;12047;53.450;-2.286;2023-05-24T08:56:17;12.75;;;4.88;;
23732;SDS011;12047;53.450;-2.286;2023-05-24T09:01:18;16.58;;;4.88;;
23732;SDS011;12047;53.450;-2.286;2023-05-24T09:06:19;16.65;;;5.00;;
23732;SDS011;12047;53.450;-2.286;2023-05-24T09:11:21;16.52;;;5.18;;
23732;SDS011;12047;53.450;-2.286;2023-05-24T09:16:23;13.68;;;4.60;;
23732;SDS011;12047;53.450;-2.286;2023-05-24T09:21:25;12.32;;;4.30;;
23732;SDS011;12047;53.450;-2.286;2023-05-24T09:26:26;14.38;;;4.60;;
23732;SDS011;12047;53.450;-2.286;2023-05-24T09:31:31;12.88;;;4.28;;
23732;SDS011;12047;53.450;-2.286;2023-05-24T09:36:33;13.75;;;4.72;;
23732;SDS011;12047;53.450;-2.286;2023-05-24T09:41:33;13.48;;;4.70;;
23732;SDS011;12047;53.450;-2.286;2023-05-24T09:46:35;12.40;;;4.78;;
23732;SDS011;12047;53.450;-2.286;2023-05-24T09:51:37;15.45;;;5.13;;
23732;SDS011;12047;53.450;-2.286;2023-05-24T09:56:38;14.70;;;5.00;;
23732;SDS011;12047;53.450;-2.286;2023-05-24T10:01:39;12.25;;;4.45;;
23732;SDS011;12047;53.450;-2.286;2023-05-24T10:06:40;12.52;;;4.30;;
23732;SDS011;12047;53.450;-2.286;2023-05-24T10:11:41;10.02;;;4.00;;
23732;SDS011;12047;53.450;-2.286;2023-05-24T10:16:42;12.35;;;3.90;;
23732;SDS011;12047;53.450;-2.286;2023-05-24T10:21:43;13.07;;;3.90;;
23732;SDS011;12047;53.450;-2.286;2023-05-24T10:26:46;20.05;;;4.90;;
23732;SDS011;12047;53.450;-2.286;2023-05-24T10:31:48;13.13;;;3.67;;
23732;SDS011;12047;53.450;-2.286;2023-05-24T10:36:51;17.27;;;4.38;;
23732;SDS011;12047;53.450;-2.286;2023-05-24T10:41:54;16.52;;;4.57;;
23732;SDS011;12047;53.450;-2.286;2023-05-24T10:52:12;19.03;;;4.83;;
23732;SDS011;12047;53.450;-2.286;2023-05-24T10:57:12;16.52;;;5.05;;
23732;SDS011;12047;53.450;-2.286;2023-05-24T11:02:25;15.45;;;4.30;;
23732;SDS011;12047;53.450;-2.286;2023-05-24T11:07:27;13.25;;;4.40;;
23732;SDS011;12047;53.450;-2.286;2023-05-24T11:12:29;13.40;;;4.80;;
23732;SDS011;12047;53.450;-2.286;2023-05-24T11:17:33;19.10;;;5.00;;
23732;SDS011;12047;53.450;-2.286;2023-05-24T11:23:05;20.95;;;5.30;;
23732;SDS011;12047;53.450;-2.286;2023-05-24T11:28:10;20.58;;;5.53;;
23732;SDS011;12047;53.450;-2.286;2023-05-24T11:33:19;20.35;;;4.90;;
23732;SDS011;12047;53.450;-2.286;2023-05-24T11:38:23;21.52;;;4.80;;
23732;SDS011;12047;53.450;-2.286;2023-05-24T11:43:25;16.23;;;4.60;;
23732;SDS011;12047;53.450;-2.286;2023-05-24T11:48:25;21.80;;;5.03;;
23732;SDS011;12047;53.450;-2.286;2023-05-24T11:53:26;17.73;;;5.20;;
23732;SDS011;12047;53.450;-2.286;2023-05-24T11:58:40;16.98;;;5.25;;
23732;SDS011;12047;53.450;-2.286;2023-05-24T12:03:49;15.88;;;5.32;;
23732;SDS011;12047;53.450;-2.286;2023-05-24T12:08:51;23.65;;;6.57;;
23732;SDS011;12047;53.450;-2.286;2023-05-24T12:13:51;18.45;;;5.20;;
23732;SDS011;12047;53.450;-2.286;2023-05-24T12:18:52;19.70;;;5.30;;
23732;SDS011;12047;53.450;-2.286;2023-05-24T12:23:52;20.77;;;6.25;;
23732;SDS011;12047;53.450;-2.286;2023-05-24T12:28:53;19.63;;;5.30;;
23732;SDS011;12047;53.450;-2.286;2023-05-24T12:33:54;17.90;;;5.05;;
23732;SDS011;12047;53.450;-2.286;2023-05-24T12:38:57;18.08;;;5.25;;
23732;SDS011;12047;53.450;-2.286;2023-05-24T12:43:58;15.23;;;4.80;;
23732;SDS011;12047;53.450;-2.286;2023-05-24T12:48:58;16.85;;;5.07;;
23732;SDS011;12047;53.450;-2.286;2023-05-24T12:54:01;19.25;;;5.20;;
23732;SDS011;12047;53.450;-2.286;2023-05-24T12:59:03;22.50;;;5.07;;
23732;SDS011;12047;53.450;-2.286;2023-05-24T13:04:04;27.50;;;6.07;;
23732;SDS011;12047;53.450;-2.286;2023-05-24T13:09:05;22.52;;;5.50;;
23732;SDS011;12047;53.450;-2.286;2023-05-24T13:14:05;22.70;;;5.30;;
23732;SDS011;12047;53.450;-2.286;2023-05-24T13:19:06;18.80;;;5.50;;
23732;SDS011;12047;53.450;-2.286;2023-05-24T13:24:07;20.58;;;5.80;;
23732;SDS011;12047;53.450;-2.286;2023-05-24T13:29:08;16.58;;;4.55;;
23732;SDS011;12047;53.450;-2.286;2023-05-24T13:34:08;25.80;;;5.28;;
23732;SDS011;12047;53.450;-2.286;2023-05-24T13:39:11;25.05;;;6.55;;
23732;SDS011;12047;53.450;-2.286;2023-05-24T13:44:12;25.48;;;5.70;;
23732;SDS011;12047;53.450;-2.286;2023-05-24T13:49:14;18.02;;;5.53;;
23732;SDS011;12047;53.450;-2.286;2023-05-24T13:54:14;23.33;;;5.28;;
23732;SDS011;12047;53.450;-2.286;2023-05-24T13:59:16;23.42;;;5.78;;
23732;SDS011;12047;53.450;-2.286;2023-05-24T14:04:17;20.48;;;5.18;;
23732;SDS011;12047;53.450;-2.286;2023-05-24T14:09:17;22.13;;;5.68;;
23732;SDS011;12047;53.450;-2.286;2023-05-24T14:14:20;22.40;;;5.57;;
23732;SDS011;12047;53.450;-2.286;2023-05-24T14:19:20;20.92;;;5.72;;
23732;SDS011;12047;53.450;-2.286;2023-05-24T14:24:21;19.77;;;5.40;;
23732;SDS011;12047;53.450;-2.286;2023-05-24T14:29:22;21.92;;;5.78;;
23732;SDS011;12047;53.450;-2.286;2023-05-24T14:34:23;21.30;;;5.60;;
23732;SDS011;12047;53.450;-2.286;2023-05-24T14:39:23;18.48;;;5.22;;
23732;SDS011;12047;53.450;-2.286;2023-05-24T14:44:24;20.02;;;5.65;;
23732;SDS011;12047;53.450;-2.286;2023-05-24T14:49:24;15.93;;;5.05;;
23732;SDS011;12047;53.450;-2.286;2023-05-24T14:54:25;19.08;;;5.97;;
23732;SDS011;12047;53.450;-2.286;2023-05-24T14:59:25;19.40;;;5.35;;
23732;SDS011;12047;53.450;-2.286;2023-05-24T15:04:26;22.07;;;5.90;;
23732;SDS011;12047;53.450;-2.286;2023-05-24T15:09:27;17.05;;;5.38;;
23732;SDS011;12047;53.450;-2.286;2023-05-24T15:14:27;18.43;;;5.43;;
23732;SDS011;12047;53.450;-2.286;2023-05-24T15:19:27;22.08;;;5.53;;
23732;SDS011;12047;53.450;-2.286;2023-05-24T15:24:28;20.90;;;5.82;;
23732;SDS011;12047;53.450;-2.286;2023-05-24T15:29:29;16.42;;;5.15;;
23732;SDS011;12047;53.450;-2.286;2023-05-24T15:34:29;23.05;;;6.00;;
23732;SDS011;12047;53.450;-2.286;2023-05-24T15:39:30;17.60;;;5.18;;
23732;SDS011;12047;53.450;-2.286;2023-05-24T15:44:34;25.55;;;8.60;;
23732;SDS011;12047;53.450;-2.286;2023-05-24T15:49:34;20.95;;;5.68;;
23732;SDS011;12047;53.450;-2.286;2023-05-24T15:54:35;25.73;;;8.18;;
23732;SDS011;12047;53.450;-2.286;2023-05-24T15:59:35;22.88;;;7.20;;
23732;SDS011;12047;53.450;-2.286;2023-05-24T16:04:37;23.60;;;5.32;;
23732;SDS011;12047;53.450;-2.286;2023-05-24T16:09:38;22.33;;;7.28;;
23732;SDS011;12047;53.450;-2.286;2023-05-24T16:14:44;20.25;;;6.90;;
23732;SDS011;12047;53.450;-2.286;2023-05-24T16:19:45;21.77;;;5.90;;
23732;SDS011;12047;53.450;-2.286;2023-05-24T16:24:48;17.95;;;5.72;;
23732;SDS011;12047;53.450;-2.286;2023-05-24T16:29:48;21.95;;;6.20;;
23732;SDS011;12047;53.450;-2.286;2023-05-24T16:34:49;17.67;;;4.72;;
23732;SDS011;12047;53.450;-2.286;2023-05-24T16:39:50;19.67;;;4.97;;
23732;SDS011;12047;53.450;-2.286;2023-05-24T16:44:50;17.65;;;5.13;;
23732;SDS011;12047;53.450;-2.286;2023-05-24T16:49:51;17.33;;;5.15;;
23732;SDS011;12047;53.450;-2.286;2023-05-24T16:54:51;20.10;;;5.20;;
23732;SDS011;12047;53.450;-2.286;2023-05-24T16:59:51;24.55;;;6.03;;
23732;SDS011;12047;53.450;-2.286;2023-05-24T17:04:52;22.08;;;6.43;;
23732;SDS011;12047;53.450;-2.286;2023-05-24T17:09:55;24.42;;;8.43;;
23732;SDS011;12047;53.450;-2.286;2023-05-24T17:14:56;19.15;;;5.72;;
23732;SDS011;12047;53.450;-2.286;2023-05-24T17:19:57;18.05;;;5.22;;
23732;SDS011;12047;53.450;-2.286;2023-05-24T17:24:57;12.15;;;4.30;;
23732;SDS011;12047;53.450;-2.286;2023-05-24T17:29:58;15.23;;;4.28;;
23732;SDS011;12047;53.450;-2.286;2023-05-24T17:34:59;15.50;;;4.18;;
23732;SDS011;12047;53.450;-2.286;2023-05-24T17:39:59;16.25;;;4.80;;
23732;SDS011;12047;53.450;-2.286;2023-05-24T17:45:00;16.73;;;3.80;;
23732;SDS011;12047;53.450;-2.286;2023-05-24T17:50:00;13.15;;;3.78;;
23732;SDS011;12047;53.450;-2.286;2023-05-24T17:55:01;15.13;;;4.05;;
23732;SDS011;12047;53.450;-2.286;2023-05-24T18:00:02;14.75;;;3.85;;
23732;SDS011;12047;53.450;-2.286;2023-05-24T18:05:03;10.63;;;3.80;;
23732;SDS011;12047;53.450;-2.286;2023-05-24T18:10:05;10.88;;;3.58;;
23732;SDS011;12047;53.450;-2.286;2023-05-24T18:15:06;13.55;;;3.65;;
23732;SDS011;12047;53.450;-2.286;2023-05-24T18:20:07;10.65;;;3.50;;
23732;SDS011;12047;53.450;-2.286;2023-05-24T18:25:08;13.70;;;3.47;;
23732;SDS011;12047;53.450;-2.286;2023-05-24T18:30:09;14.10;;;3.60;;
23732;SDS011;12047;53.450;-2.286;2023-05-24T18:35:10;13.15;;;3.70;;
23732;SDS011;12047;53.450;-2.286;2023-05-24T18:40:15;10.40;;;3.13;;
23732;SDS011;12047;53.450;-2.286;2023-05-24T18:45:16;10.43;;;3.10;;
23732;SDS011;12047;53.450;-2.286;2023-05-24T18:50:16;10.10;;;3.00;;
23732;SDS011;12047;53.450;-2.286;2023-05-24T18:55:21;12.52;;;3.17;;
23732;SDS011;12047;53.450;-2.286;2023-05-24T19:00:23;11.25;;;2.78;;
23732;SDS011;12047;53.450;-2.286;2023-05-24T19:05:24;11.00;;;3.22;;
23732;SDS011;12047;53.450;-2.286;2023-05-24T19:10:25;11.55;;;2.95;;
23732;SDS011;12047;53.450;-2.286;2023-05-24T19:15:25;10.05;;;3.00;;
23732;SDS011;12047;53.450;-2.286;2023-05-24T19:20:27;11.70;;;2.88;;
23732;SDS011;12047;53.450;-2.286;2023-05-24T19:25:27;10.43;;;2.65;;
23732;SDS011;12047;53.450;-2.286;2023-05-24T19:30:29;11.18;;;2.75;;
23732;SDS011;12047;53.450;-2.286;2023-05-24T19:35:29;7.18;;;2.65;;
23732;SDS011;12047;53.450;-2.286;2023-05-24T19:40:30;6.85;;;2.75;;
23732;SDS011;12047;53.450;-2.286;2023-05-24T19:45:30;7.40;;;2.63;;
23732;SDS011;12047;53.450;-2.286;2023-05-24T19:50:31;11.13;;;2.53;;
23732;SDS011;12047;53.450;-2.286;2023-05-24T19:55:31;9.20;;;2.55;;
23732;SDS011;12047;53.450;-2.286;2023-05-24T20:00:32;15.40;;;4.00;;
23732;SDS011;12047;53.450;-2.286;2023-05-24T20:05:33;8.68;;;2.40;;
23732;SDS011;12047;53.450;-2.286;2023-05-24T20:10:33;8.85;;;2.60;;
23732;SDS011;12047;53.450;-2.286;2023-05-24T20:15:35;8.60;;;2.42;;
23732;SDS011;12047;53.450;-2.286;2023-05-24T20:20:35;6.82;;;2.35;;
23732;SDS011;12047;53.450;-2.286;2023-05-24T20:25:36;8.05;;;2.60;;
23732;SDS011;12047;53.450;-2.286;2023-05-24T20:30:36;8.55;;;2.50;;
23732;SDS011;12047;53.450;-2.286;2023-05-24T20:35:38;12.13;;;2.55;;
23732;SDS011;12047;53.450;-2.286;2023-05-24T20:40:39;9.30;;;2.47;;
23732;SDS011;12047;53.450;-2.286;2023-05-24T20:45:39;8.82;;;2.25;;
23732;SDS011;12047;53.450;-2.286;2023-05-24T20:50:40;10.13;;;2.50;;
23732;SDS011;12047;53.450;-2.286;2023-05-24T20:55:41;7.75;;;2.15;;
23732;SDS011;12047;53.450;-2.286;2023-05-24T21:00:41;9.98;;;3.08;;
23732;SDS011;12047;53.450;-2.286;2023-05-24T21:05:42;11.25;;;2.90;;
23732;SDS011;12047;53.450;-2.286;2023-05-24T21:10:42;11.98;;;2.83;;
23732;SDS011;12047;53.450;-2.286;2023-05-24T21:15:42;11.07;;;2.67;;
23732;SDS011;12047;53.450;-2.286;2023-05-24T21:20:43;7.88;;;2.85;;
23732;SDS011;12047;53.450;-2.286;2023-05-24T21:25:43;10.18;;;2.42;;
23732;SDS011;12047;53.450;-2.286;2023-05-24T21:30:44;11.15;;;2.83;;
23732;SDS011;12047;53.450;-2.286;2023-05-24T21:35:44;5.38;;;2.47;;
23732;SDS011;12047;53.450;-2.286;2023-05-24T21:40:45;5.95;;;2.45;;
23732;SDS011;12047;53.450;-2.286;2023-05-24T21:45:45;8.05;;;2.80;;
23732;SDS011;12047;53.450;-2.286;2023-05-24T21:50:46;13.02;;;3.13;;
23732;SDS011;12047;53.450;-2.286;2023-05-24T21:55:46;10.40;;;2.92;;
23732;SDS011;12047;53.450;-2.286;2023-05-24T22:00:47;7.65;;;3.22;;
23732;SDS011;12047;53.450;-2.286;2023-05-24T22:05:48;11.43;;;3.63;;
23732;SDS011;12047;53.450;-2.286;2023-05-24T22:10:48;13.70;;;3.80;;
23732;SDS011;12047;53.450;-2.286;2023-05-24T22:15:48;13.48;;;3.92;;
23732;SDS011;12047;53.450;-2.286;2023-05-24T22:20:49;11.38;;;4.40;;
23732;SDS011;12047;53.450;-2.286;2023-05-24T22:25:50;12.88;;;5.43;;
23732;SDS011;12047;53.450;-2.286;2023-05-24T22:30:50;15.50;;;5.07;;
23732;SDS011;12047;53.450;-2.286;2023-05-24T22:35:51;15.15;;;5.65;;
23732;SDS011;12047;53.450;-2.286;2023-05-24T22:40:52;13.95;;;5.60;;
23732;SDS011;12047;53.450;-2.286;2023-05-24T22:45:52;12.93;;;5.97;;
23732;SDS011;12047;53.450;-2.286;2023-05-24T22:50:53;13.32;;;4.85;;
23732;SDS011;12047;53.450;-2.286;2023-05-24T22:55:58;13.82;;;5.38;;
23732;SDS011;12047;53.450;-2.286;2023-05-24T23:00:58;10.43;;;4.53;;
23732;SDS011;12047;53.450;-2.286;2023-05-24T23:05:59;12.80;;;3.85;;
23732;SDS011;12047;53.450;-2.286;2023-05-24T23:11:03;8.43;;;3.80;;
23732;SDS011;12047;53.450;-2.286;2023-05-24T23:16:10;10.83;;;3.27;;
23732;SDS011;12047;53.450;-2.286;2023-05-24T23:21:17;7.13;;;3.63;;
23732;SDS011;12047;53.450;-2.286;2023-05-24T23:26:17;14.25;;;3.88;;
23732;SDS011;12047;53.450;-2.286;2023-05-24T23:31:18;13.25;;;4.43;;
23732;SDS011;12047;53.450;-2.286;2023-05-24T23:36:18;19.33;;;4.07;;
23732;SDS011;12047;53.450;-2.286;2023-05-24T23:41:19;9.23;;;3.67;;
23732;SDS011;12047;53.450;-2.286;2023-05-24T23:46:20;10.73;;;3.75;;
23732;SDS011;12047;53.450;-2.286;2023-05-24T23:51:21;9.80;;;3.60;;
23732;SDS011;12047;53.450;-2.286;2023-05-24T23:56:21;10.85;;;3.85;;
